Time;durP1;ratioP1;P1;durP2;ratioP2;P2;SDS_P1;SDS_P2;PMS_P1;PMS_P2;Temp;Humidity;BMP_temperature;BMP_pressure;BME280_temperature;BME280_humidity;BME280_pressure;Samples;Min_cycle;Max_cycle;Signal;HPM_P1;HPM_P2
2023/02/18 00:01:53;;;;;;;76.70;21.52;;;;;;;8.71;100.00;102237.19;5037643;28;20052;-45
2023/02/18 00:04:18;;;;;;;90.50;23.38;;;;;;;8.72;100.00;102228.16;5030189;28;20044;-45
2023/02/18 00:06:44;;;;;;;87.78;22.52;;;;;;;8.69;100.00;102228.41;5034163;28;20033;-44
2023/02/18 00:09:09;;;;;;;89.13;24.52;;;;;;;8.69;100.00;102225.72;5024097;28;20099;-45
2023/02/18 00:11:36;;;;;;;83.18;24.70;;;;;;;8.66;100.00;102212.59;5027499;28;20036;-43
2023/02/18 00:14:05;;;;;;;76.90;24.33;;;;;;;8.63;100.00;102223.59;5023708;28;20025;-45
2023/02/18 00:16:30;;;;;;;84.60;24.48;;;;;;;8.53;100.00;102218.19;5028122;28;20509;-47
2023/02/18 00:18:57;;;;;;;77.65;22.88;;;;;;;8.48;100.00;102221.28;5015054;28;20076;-44
2023/02/18 00:21:23;;;;;;;89.10;24.52;;;;;;;8.48;100.00;102215.94;5025821;28;20042;-44
2023/02/18 00:23:48;;;;;;;89.15;23.73;;;;;;;8.46;100.00;102207.16;5029847;28;20030;-44
2023/02/18 00:26:15;;;;;;;86.78;24.70;;;;;;;8.46;100.00;102207.16;5030594;28;20034;-43
2023/02/18 00:28:40;;;;;;;84.68;25.30;;;;;;;8.47;100.00;102218.72;5022362;28;20092;-44
2023/02/18 00:31:08;;;;;;;77.30;23.55;;;;;;;8.48;100.00;102215.09;5020757;28;20041;-44
2023/02/18 00:33:33;;;;;;;98.55;26.80;;;;;;;8.44;100.00;102214.47;5025229;28;20041;-43
2023/02/18 00:36:07;;;;;;;85.88;24.50;;;;;;;8.43;100.00;102202.06;5011208;28;20033;-46
2023/02/18 00:38:33;;;;;;;92.97;27.23;;;;;;;8.45;100.00;102210.84;5017740;28;20108;-47
2023/02/18 00:40:59;;;;;;;91.28;27.02;;;;;;;8.46;100.00;102212.53;5021999;28;20120;-44
2023/02/18 00:43:24;;;;;;;95.00;26.38;;;;;;;8.47;100.00;102208.84;5014813;28;20026;-43
2023/02/18 00:45:49;;;;;;;82.57;25.50;;;;;;;8.47;100.00;102208.84;5032775;28;20103;-43
2023/02/18 00:48:15;;;;;;;90.38;27.98;;;;;;;8.47;100.00;102203.47;5031672;28;20053;-44
2023/02/18 00:50:40;;;;;;;100.18;27.85;;;;;;;8.47;100.00;102191.91;5027730;28;20033;-44
2023/02/18 00:53:05;;;;;;;97.75;28.58;;;;;;;8.47;100.00;102195.44;5027199;28;20022;-45
2023/02/18 00:55:30;;;;;;;102.82;29.95;;;;;;;8.48;100.00;102194.47;5032449;28;20036;-43
2023/02/18 00:57:56;;;;;;;89.68;28.80;;;;;;;8.50;100.00;102197.84;5025769;28;20065;-43
2023/02/18 01:00:21;;;;;;;96.22;28.25;;;;;;;8.52;100.00;102195.88;5027199;28;20033;-45
2023/02/18 01:02:47;;;;;;;96.15;28.17;;;;;;;8.54;100.00;102193.91;5033805;28;20033;-44
2023/02/18 01:05:12;;;;;;;89.07;26.58;;;;;;;8.54;100.00;102196.59;5033091;28;20116;-43
2023/02/18 01:07:38;;;;;;;95.22;28.00;;;;;;;8.56;100.00;102191.94;5032740;28;20025;-44
2023/02/18 01:10:04;;;;;;;86.95;25.98;;;;;;;8.60;100.00;102202.41;5032549;28;20048;-44
2023/02/18 01:12:29;;;;;;;84.22;25.23;;;;;;;8.56;100.00;102201.84;5023603;28;20207;-44
2023/02/18 01:14:54;;;;;;;88.75;25.58;;;;;;;8.53;100.00;102185.97;5018737;28;20053;-44
2023/02/18 01:17:20;;;;;;;82.05;24.67;;;;;;;8.52;100.00;102182.44;5033415;28;20487;-45
2023/02/18 01:19:45;;;;;;;72.65;22.77;;;;;;;8.52;100.00;102174.41;5031972;28;20088;-43
2023/02/18 01:22:10;;;;;;;76.53;22.08;;;;;;;8.53;100.00;102173.44;5033785;28;20034;-43
2023/02/18 01:24:37;;;;;;;77.70;23.25;;;;;;;8.53;100.00;102164.50;5033453;28;20025;-44
2023/02/18 01:27:03;;;;;;;81.82;24.48;;;;;;;8.55;100.00;102167.91;5034000;28;20465;-44
2023/02/18 01:29:28;;;;;;;69.30;23.73;;;;;;;8.56;100.00;102169.63;5029936;28;20038;-44
2023/02/18 01:31:53;;;;;;;77.25;22.40;;;;;;;8.55;100.00;102184.84;5014180;28;20030;-43
2023/02/18 01:34:18;;;;;;;73.25;22.85;;;;;;;8.57;100.00;102171.31;5014060;28;20054;-43
2023/02/18 01:36:44;;;;;;;71.95;22.30;;;;;;;8.60;100.00;102170.19;5013750;28;20032;-44
2023/02/18 01:39:09;;;;;;;73.13;23.15;;;;;;;8.55;100.00;102168.75;5014303;28;20418;-44
2023/02/18 01:41:34;;;;;;;70.13;23.10;;;;;;;8.57;100.00;102161.44;5028798;28;20461;-44
2023/02/18 01:44:21;;;;;;;83.63;23.77;;;;;;;8.59;100.00;102157.78;5012145;28;20431;-45
2023/02/18 01:46:46;;;;;;;81.32;24.08;;;;;;;8.62;100.00;102157.50;5027580;28;20068;-44
2023/02/18 01:49:27;;;;;;;81.72;24.77;;;;;;;8.63;100.00;102145.78;5027455;28;20061;-43
2023/02/18 01:52:01;;;;;;;82.55;24.50;;;;;;;8.62;100.00;102147.59;5032673;28;20028;-43
2023/02/18 01:54:33;;;;;;;82.93;26.70;;;;;;;8.64;100.00;102155.53;5032901;28;20040;-43
2023/02/18 01:57:14;;;;;;;86.03;25.67;;;;;;;8.65;100.00;102146.50;5012758;28;20601;-46
2023/02/18 01:59:56;;;;;;;84.72;25.13;;;;;;;8.67;100.00;102139.16;5015896;28;20053;-44
2023/02/18 02:02:26;;;;;;;79.07;23.83;;;;;;;8.68;100.00;102130.94;5023826;28;20481;-44
2023/02/18 02:04:52;;;;;;;82.63;24.75;;;;;;;8.70;100.00;102125.47;5026065;28;20037;-43
2023/02/18 02:07:20;;;;;;;89.75;26.38;;;;;;;8.71;100.00;102119.09;5031742;28;20092;-44
2023/02/18 02:09:46;;;;;;;87.78;25.27;;;;;;;8.72;100.00;102110.06;5019405;28;20052;-43
2023/02/18 02:12:32;;;;;;;84.28;26.95;;;;;;;8.71;100.00;102113.72;5023391;28;20025;-44
2023/02/18 02:15:23;;;;;;;82.20;25.58;;;;;;;8.72;100.00;102107.38;5024105;28;20369;-46
2023/02/18 02:18:00;;;;;;;88.35;23.35;;;;;;;8.69;100.00;102103.13;5013716;28;20114;-47
2023/02/18 02:21:09;;;;;;;84.55;24.90;;;;;;;8.71;100.00;102105.66;5031662;28;20514;-45
2023/02/18 02:24:11;;;;;;;81.80;23.10;;;;;;;8.73;100.00;102095.66;5022207;28;20346;-44
2023/02/18 02:27:15;;;;;;;77.22;23.27;;;;;;;8.75;100.00;102088.31;5020502;28;20508;-44
2023/02/18 02:30:02;;;;;;;83.50;23.45;;;;;;;8.75;100.00;102072.22;5011397;28;20056;-44
2023/02/18 02:32:46;;;;;;;80.85;22.90;;;;;;;8.73;100.00;102063.44;5012969;28;20108;-44
2023/02/18 02:35:17;;;;;;;77.55;21.25;;;;;;;8.73;100.00;102056.22;5012206;28;20557;-45
2023/02/18 02:38:17;;;;;;;75.97;24.50;;;;;;;8.71;100.00;102049.31;5017580;28;20045;-44
2023/02/18 02:40:47;;;;;;;77.18;22.90;;;;;;;8.70;100.00;102032.34;5010889;28;20021;-43
2023/02/18 02:43:25;;;;;;;73.30;22.33;;;;;;;8.71;100.00;102038.56;5011526;28;20032;-44
2023/02/18 02:45:57;;;;;;;77.45;22.50;;;;;;;8.70;100.00;102036.88;5018022;28;20025;-43
2023/02/18 02:48:41;;;;;;;68.88;20.98;;;;;;;8.70;100.00;102036.88;5017180;28;20080;-46
2023/02/18 02:51:13;;;;;;;66.65;22.20;;;;;;;8.71;100.00;102019.78;5025337;28;20039;-44
2023/02/18 02:53:40;;;;;;;58.65;19.92;;;;;;;8.71;100.00;102025.16;5031311;28;20075;-44
2023/02/18 02:56:15;;;;;;;49.13;17.25;;;;;;;8.73;100.00;102031.22;5020419;28;20022;-45
2023/02/18 02:58:41;;;;;;;45.55;17.63;;;;;;;8.73;100.00;102020.50;5019617;28;20052;-44
2023/02/18 03:01:12;;;;;;;48.30;17.85;;;;;;;8.76;100.00;102036.31;5030199;28;20045;-44
2023/02/18 03:04:05;;;;;;;46.20;16.70;;;;;;;8.75;100.00;102021.22;5016567;28;20088;-44
2023/02/18 03:06:53;;;;;;;49.67;15.40;;;;;;;8.76;100.00;102029.09;5024859;28;20017;-40
2023/02/18 03:09:53;;;;;;;50.08;16.30;;;;;;;8.77;100.00;102021.91;5044776;28;20091;-41
2023/02/18 03:12:24;;;;;;;46.72;17.38;;;;;;;8.78;100.00;102018.22;5016442;28;20038;-42
2023/02/18 03:15:03;;;;;;;45.25;15.35;;;;;;;8.77;100.00;102011.19;5030710;28;20040;-44
2023/02/18 03:17:36;;;;;;;47.10;15.48;;;;;;;8.72;100.00;102014.28;5027446;28;20061;-48
2023/02/18 03:20:25;;;;;;;47.92;15.90;;;;;;;8.71;100.00;101993.78;5030272;28;20037;-46
2023/02/18 03:22:52;;;;;;;52.85;14.52;;;;;;;8.71;100.00;101982.22;5025677;28;20052;-45
2023/02/18 03:25:18;;;;;;;48.83;15.02;;;;;;;8.69;100.00;101970.75;5025318;28;20037;-46
2023/02/18 03:27:55;;;;;;;44.47;14.90;;;;;;;8.68;100.00;101977.13;5013098;28;20046;-46
2023/02/18 03:30:32;;;;;;;48.60;15.95;;;;;;;8.64;100.00;101973.06;5030411;28;20037;-44
2023/02/18 03:33:02;;;;;;;50.55;16.13;;;;;;;8.62;100.00;101964.28;5010517;28;20377;-45
2023/02/18 03:35:28;;;;;;;45.65;16.65;;;;;;;8.63;100.00;101968.66;5018773;28;20055;-45
2023/02/18 03:38:12;;;;;;;56.28;17.13;;;;;;;8.61;100.00;101957.19;5013806;28;20477;-44
2023/02/18 03:40:38;;;;;;;58.83;18.65;;;;;;;8.60;100.00;101960.88;5026633;28;20405;-44
2023/02/18 03:43:03;;;;;;;55.67;18.27;;;;;;;8.59;100.00;101956.53;5023408;28;20033;-45
2023/02/18 03:45:29;;;;;;;58.55;19.95;;;;;;;8.59;100.00;101954.69;5029246;28;20079;-43
2023/02/18 03:47:54;;;;;;;57.65;19.92;;;;;;;8.57;100.00;101951.28;5024496;28;20457;-44
2023/02/18 03:50:20;;;;;;;64.20;19.42;;;;;;;8.55;100.00;101958.63;4991885;28;20415;-44
2023/02/18 03:52:45;;;;;;;57.63;19.67;;;;;;;8.57;100.00;101952.13;5008641;28;20558;-43
2023/02/18 03:55:11;;;;;;;61.92;19.85;;;;;;;8.56;100.00;101955.81;5010909;28;20046;-43
2023/02/18 03:57:36;;;;;;;67.78;20.80;;;;;;;8.52;100.00;101950.84;5010265;28;20296;-43
2023/02/18 04:00:05;;;;;;;78.20;22.83;;;;;;;8.54;100.00;101951.56;5029810;28;20033;-43
2023/02/18 04:02:30;;;;;;;81.50;22.95;;;;;;;8.55;100.00;101950.56;5027851;28;20025;-42
2023/02/18 04:04:55;;;;;;;80.53;23.38;;;;;;;8.55;100.00;101959.47;5010745;28;20030;-44
2023/02/18 04:07:21;;;;;;;83.47;25.55;;;;;;;8.57;100.00;101957.50;5015295;28;20492;-43
2023/02/18 04:09:46;;;;;;;83.00;23.67;;;;;;;8.62;100.00;101964.28;5015426;28;20380;-44
2023/02/18 04:12:11;;;;;;;79.72;23.40;;;;;;;8.63;100.00;101944.50;5028282;28;20392;-45
2023/02/18 04:14:37;;;;;;;76.72;22.92;;;;;;;8.67;100.00;101937.88;5029121;28;20481;-44
2023/02/18 04:17:02;;;;;;;81.18;22.73;;;;;;;8.67;100.00;101930.66;5029930;28;20644;-43
2023/02/18 04:19:27;;;;;;;82.80;22.83;;;;;;;8.70;100.00;101940.25;5015824;28;20030;-45
2023/02/18 04:21:53;;;;;;;75.03;22.75;;;;;;;8.71;100.00;101937.41;5030031;28;20029;-43
2023/02/18 04:24:18;;;;;;;86.55;22.27;;;;;;;8.73;100.00;101939.97;5015294;28;20054;-45
2023/02/18 04:26:43;;;;;;;67.88;21.15;;;;;;;8.75;100.00;101938.00;5030013;28;20033;-43
2023/02/18 04:29:09;;;;;;;76.65;21.50;;;;;;;8.77;100.00;101939.56;5020837;28;20040;-43
2023/02/18 04:31:34;;;;;;;69.72;19.85;;;;;;;8.81;100.00;101929.38;5013544;28;20444;-46
2023/02/18 04:34:00;;;;;;;65.65;21.35;;;;;;;8.81;100.00;101926.69;5018332;28;20179;-46
2023/02/18 04:36:25;;;;;;;73.38;21.02;;;;;;;8.79;100.00;101907.19;5030675;28;20091;-45
2023/02/18 04:38:50;;;;;;;72.00;19.73;;;;;;;8.81;100.00;101904.38;5027274;28;20030;-45
2023/02/18 04:41:16;;;;;;;66.45;20.17;;;;;;;8.80;100.00;101898.16;5027062;28;20025;-45
2023/02/18 04:43:41;;;;;;;61.08;18.70;;;;;;;8.82;100.00;101896.19;5019327;28;20063;-44
2023/02/18 04:46:06;;;;;;;59.28;19.10;;;;;;;8.81;100.00;101897.16;5031237;28;20019;-45
2023/02/18 04:48:33;;;;;;;67.97;18.17;;;;;;;8.82;100.00;101900.69;5020108;28;20056;-45
2023/02/18 04:50:59;;;;;;;70.43;19.13;;;;;;;8.82;100.00;101898.88;5022073;28;20033;-45
2023/02/18 04:53:24;;;;;;;61.10;19.02;;;;;;;8.82;100.00;101890.81;5019536;28;20473;-43
2023/02/18 04:55:50;;;;;;;63.97;18.88;;;;;;;8.83;100.00;101895.19;5029297;28;20461;-43
2023/02/18 04:58:16;;;;;;;53.13;16.48;;;;;;;8.85;100.00;101901.25;5014421;28;20030;-42
2023/02/18 05:00:41;;;;;;;53.97;17.27;;;;;;;8.85;100.00;101895.88;5030154;28;20048;-43
2023/02/18 05:03:06;;;;;;;60.88;18.70;;;;;;;8.87;100.00;101896.56;5031479;28;20055;-44
2023/02/18 05:05:32;;;;;;;65.35;17.38;;;;;;;8.87;100.00;101887.66;5031378;28;20608;-44
2023/02/18 05:07:57;;;;;;;68.47;19.08;;;;;;;8.84;100.00;101886.13;5024947;28;20544;-43
2023/02/18 05:10:22;;;;;;;65.18;19.75;;;;;;;8.82;100.00;101890.81;5021472;28;20401;-43
2023/02/18 05:12:48;;;;;;;54.03;18.30;;;;;;;8.82;100.00;101884.56;5010034;28;20044;-44
2023/02/18 05:15:14;;;;;;;51.85;17.63;;;;;;;8.84;100.00;101877.22;5013834;28;20034;-44
2023/02/18 05:17:39;;;;;;;44.63;15.60;;;;;;;8.88;100.00;101876.78;5030662;28;20083;-46
2023/02/18 05:20:05;;;;;;;48.05;15.95;;;;;;;8.89;100.00;101853.47;5021654;28;20029;-46
2023/02/18 05:22:31;;;;;;;46.33;15.85;;;;;;;8.91;100.00;101852.34;5013021;28;20113;-47
2023/02/18 05:24:56;;;;;;;42.80;15.32;;;;;;;8.94;100.00;101872.69;5021733;28;20152;-44
2023/02/18 05:27:21;;;;;;;41.22;14.75;;;;;;;8.96;100.00;101860.81;5028461;28;20065;-43
2023/02/18 05:29:47;;;;;;;46.70;14.73;;;;;;;8.97;100.00;101857.13;5021296;28;20069;-44
2023/02/18 05:32:12;;;;;;;48.20;15.45;;;;;;;8.97;100.00;101857.13;5031170;28;20044;-46
2023/02/18 05:34:37;;;;;;;48.70;15.82;;;;;;;8.94;100.00;101852.03;5030923;28;20405;-46
2023/02/18 05:37:03;;;;;;;46.42;15.43;;;;;;;8.90;100.00;101839.06;5030092;28;20108;-45
2023/02/18 05:39:28;;;;;;;45.22;15.55;;;;;;;8.89;100.00;101842.75;5027912;28;20026;-45
2023/02/18 05:41:53;;;;;;;41.72;15.95;;;;;;;8.86;100.00;101840.34;5017938;28;20049;-46
2023/02/18 05:44:32;;;;;;;52.72;16.05;;;;;;;8.84;100.00;101845.00;5031004;28;20030;-44
2023/02/18 05:47:02;;;;;;;52.70;15.75;;;;;;;8.78;100.00;101835.72;5019545;28;20046;-46
2023/02/18 05:49:29;;;;;;;53.70;16.20;;;;;;;8.76;100.00;101843.06;5027640;28;20026;-43
2023/02/18 05:51:55;;;;;;;61.38;16.88;;;;;;;8.72;100.00;101836.31;5029874;28;20112;-46
2023/02/18 05:54:21;;;;;;;55.30;16.75;;;;;;;8.71;100.00;101839.97;5030201;28;20564;-44
2023/02/18 05:56:47;;;;;;;60.60;17.80;;;;;;;8.67;100.00;101847.47;5020190;28;20095;-44
2023/02/18 05:59:12;;;;;;;67.95;18.77;;;;;;;8.66;100.00;101826.13;5016322;28;20029;-44
2023/02/18 06:01:38;;;;;;;75.63;19.63;;;;;;;8.64;100.00;101833.50;5023501;28;20037;-43
2023/02/18 06:04:03;;;;;;;69.20;17.40;;;;;;;8.63;100.00;101835.31;5025374;28;20052;-45
2023/02/18 06:06:29;;;;;;;90.85;20.13;;;;;;;8.65;100.00;101844.06;5023733;28;20042;-46
2023/02/18 06:08:54;;;;;;;69.93;16.40;;;;;;;8.66;100.00;101836.88;5024345;28;20045;-46
2023/02/18 06:11:19;;;;;;;63.85;14.45;;;;;;;8.70;100.00;101832.91;5023577;28;20033;-45
2023/02/18 06:13:45;;;;;;;64.57;14.50;;;;;;;8.73;100.00;101837.97;5018157;28;20092;-46
2023/02/18 06:16:10;;;;;;;65.93;14.52;;;;;;;8.76;100.00;101843.06;5012647;28;20029;-46
2023/02/18 06:18:36;;;;;;;71.18;12.70;;;;;;;8.77;100.00;101832.19;5013376;28;20045;-47
2023/02/18 06:21:01;;;;;;;51.00;11.50;;;;;;;8.78;100.00;101831.19;5019786;28;20033;-45
2023/02/18 06:23:26;;;;;;;58.33;12.55;;;;;;;8.80;100.00;101833.72;5019176;28;20544;-45
2023/02/18 06:25:52;;;;;;;53.72;12.15;;;;;;;8.84;100.00;101834.28;5031970;28;20037;-45
2023/02/18 06:28:17;;;;;;;64.70;12.57;;;;;;;8.83;100.00;101837.97;5028807;28;20396;-43
2023/02/18 06:30:44;;;;;;;52.13;12.27;;;;;;;8.84;100.00;101829.75;5023064;28;20026;-44
2023/02/18 06:33:09;;;;;;;61.92;13.60;;;;;;;8.85;100.00;101831.47;5014862;28;20448;-43
2023/02/18 06:35:34;;;;;;;49.75;12.02;;;;;;;8.86;100.00;101826.94;5031126;28;20025;-45
2023/02/18 06:38:00;;;;;;;52.28;11.15;;;;;;;8.87;100.00;101823.25;5021788;28;20030;-45
2023/02/18 06:40:25;;;;;;;67.13;11.50;;;;;;;8.82;100.00;101836.25;5031268;28;20029;-47
2023/02/18 06:42:52;;;;;;;52.28;9.60;;;;;;;8.80;100.00;101833.72;5029594;28;20068;-46
2023/02/18 06:45:17;;;;;;;61.10;10.38;;;;;;;8.79;100.00;101826.66;5031416;28;20025;-45
2023/02/18 06:47:43;;;;;;;42.53;8.07;;;;;;;8.78;100.00;101819.59;5030336;28;20108;-46
2023/02/18 06:50:08;;;;;;;59.80;9.00;;;;;;;8.78;100.00;101819.59;5015660;28;20063;-45
2023/02/18 06:52:34;;;;;;;52.10;7.22;;;;;;;8.77;100.00;101825.97;5015828;28;20324;-45
2023/02/18 06:54:59;;;;;;;34.55;5.65;;;;;;;8.76;100.00;101817.06;5011877;28;20033;-44
2023/02/18 06:57:25;;;;;;;47.13;6.50;;;;;;;8.75;100.00;101811.84;5016602;28;20100;-45
2023/02/18 06:59:50;;;;;;;44.97;6.05;;;;;;;8.70;100.00;101806.91;5030963;28;20064;-44
2023/02/18 07:02:16;;;;;;;48.90;6.22;;;;;;;8.69;100.00;101812.41;5027885;28;20100;-43
2023/02/18 07:04:41;;;;;;;47.00;5.85;;;;;;;8.68;100.00;101800.84;5011775;28;20026;-44
2023/02/18 07:07:06;;;;;;;52.72;5.18;;;;;;;8.66;100.00;101810.03;5013099;28;20125;-44
2023/02/18 07:09:32;;;;;;;43.85;5.00;;;;;;;8.68;100.00;101797.31;5011483;28;20029;-43
2023/02/18 07:11:57;;;;;;;48.58;5.65;;;;;;;8.69;100.00;101793.63;5018451;28;20048;-45
2023/02/18 07:14:23;;;;;;;44.78;4.65;;;;;;;8.68;100.00;101798.16;5029225;28;20544;-44
2023/02/18 07:16:49;;;;;;;49.95;5.72;;;;;;;8.65;100.00;101781.50;5012670;28;20034;-44
2023/02/18 07:19:15;;;;;;;63.97;5.25;;;;;;;8.66;100.00;101761.72;5011962;28;20504;-46
2023/02/18 07:21:40;;;;;;;47.00;5.75;;;;;;;8.65;100.00;101782.34;5019715;28;20030;-46
2023/02/18 07:24:05;;;;;;;65.30;5.68;;;;;;;8.66;100.00;101788.56;5030239;28;20033;-44
2023/02/18 07:26:31;;;;;;;52.55;5.22;;;;;;;8.67;100.00;101776.84;5029082;28;20025;-45
2023/02/18 07:28:56;;;;;;;47.35;5.05;;;;;;;8.65;100.00;101786.88;5018513;28;20060;-44
2023/02/18 07:31:21;;;;;;;58.65;5.25;;;;;;;8.63;100.00;101778.13;5019835;28;20044;-43
2023/02/18 07:33:47;;;;;;;43.80;4.85;;;;;;;8.65;100.00;101773.47;5022807;28;20056;-45
2023/02/18 07:36:12;;;;;;;49.75;6.25;;;;;;;8.64;100.00;101777.16;5030703;28;20032;-46
2023/02/18 07:38:37;;;;;;;47.10;5.28;;;;;;;8.63;100.00;101775.44;5028897;28;20527;-44
2023/02/18 07:41:03;;;;;;;46.13;5.10;;;;;;;8.65;100.00;101765.41;5020337;28;20033;-44
2023/02/18 07:43:28;;;;;;;43.40;5.85;;;;;;;8.62;100.00;101776.44;5028069;28;20025;-45
2023/02/18 07:45:54;;;;;;;41.67;5.78;;;;;;;8.63;100.00;101778.97;5028679;28;20440;-46
2023/02/18 07:48:19;;;;;;;45.33;4.55;;;;;;;8.66;100.00;101772.47;5009568;28;20036;-44
2023/02/18 07:50:45;;;;;;;43.00;4.55;;;;;;;8.66;100.00;101775.13;5006153;28;20059;-45
2023/02/18 07:53:12;;;;;;;39.88;3.92;;;;;;;8.66;100.00;101788.56;5024819;28;20442;-44
2023/02/18 07:55:49;;;;;;;51.33;4.05;;;;;;;8.67;100.00;101779.53;5026096;28;20045;-46
2023/02/18 07:58:22;;;;;;;41.40;4.05;;;;;;;8.68;100.00;101775.84;5016036;28;20036;-44
2023/02/18 08:00:48;;;;;;;35.55;4.13;;;;;;;8.68;100.00;101773.16;5012719;28;20571;-45
2023/02/18 08:03:17;;;;;;;41.47;4.15;;;;;;;8.72;100.00;101782.63;5026279;28;20037;-45
2023/02/18 08:05:43;;;;;;;40.03;4.82;;;;;;;8.71;100.00;101773.69;5028416;28;20618;-45
2023/02/18 08:08:20;;;;;;;38.78;4.18;;;;;;;8.70;100.00;101784.59;5021824;28;20029;-44
2023/02/18 08:10:46;;;;;;;30.75;4.28;;;;;;;8.72;100.00;101788.00;5021230;28;20036;-44
2023/02/18 08:13:11;;;;;;;44.53;5.20;;;;;;;8.70;100.00;101798.03;5012207;28;20022;-44
2023/02/18 08:15:37;;;;;;;42.90;4.95;;;;;;;8.63;100.00;101778.13;5012303;28;20041;-43
2023/02/18 08:18:03;;;;;;;39.65;5.05;;;;;;;8.60;100.00;101795.34;5009110;28;20029;-44
2023/02/18 08:20:29;;;;;;;43.42;4.28;;;;;;;8.57;100.00;101796.50;5007832;28;20042;-44
2023/02/18 08:22:54;;;;;;;49.13;4.75;;;;;;;8.55;100.00;101786.91;5008981;28;20107;-45
2023/02/18 08:25:19;;;;;;;48.40;5.68;;;;;;;8.60;100.00;101799.88;5008835;28;20040;-42
2023/02/18 08:27:45;;;;;;;38.03;4.32;;;;;;;8.57;100.00;101812.59;5008625;28;20081;-43
2023/02/18 08:30:10;;;;;;;55.90;6.32;;;;;;;8.62;100.00;101798.75;5008707;28;20054;-45
2023/02/18 08:32:36;;;;;;;41.72;4.80;;;;;;;8.60;100.00;101800.72;5009153;28;20018;-43
2023/02/18 08:35:02;;;;;;;40.85;4.50;;;;;;;8.63;100.00;101791.53;5008417;28;20053;-43
2023/02/18 08:37:27;;;;;;;50.15;5.07;;;;;;;8.68;100.00;101791.94;5008673;28;20464;-44
2023/02/18 08:39:53;;;;;;;39.83;4.55;;;;;;;8.67;100.00;101801.84;5008730;28;20126;-46
2023/02/18 08:42:18;;;;;;;42.80;5.22;;;;;;;8.70;100.00;101809.59;5008351;28;20072;-45
2023/02/18 08:44:43;;;;;;;55.25;6.38;;;;;;;8.69;100.00;101799.00;5008356;28;20052;-45
2023/02/18 08:47:09;;;;;;;59.50;5.32;;;;;;;8.70;100.00;101793.50;5008074;28;20068;-43
2023/02/18 08:49:35;;;;;;;48.58;5.43;;;;;;;8.73;100.00;101779.78;5009016;28;20447;-46
2023/02/18 08:52:01;;;;;;;47.80;5.85;;;;;;;8.82;100.00;101814.78;5010301;28;20030;-45
2023/02/18 08:54:27;;;;;;;40.00;4.55;;;;;;;8.77;100.00;101807.19;5010249;28;20022;-46
2023/02/18 08:56:56;;;;;;;37.65;4.68;;;;;;;8.80;100.00;101809.56;5009950;28;20080;-43
2023/02/18 08:59:22;;;;;;;39.47;4.35;;;;;;;8.81;100.00;101815.78;5010248;28;20026;-45
2023/02/18 09:01:48;;;;;;;45.95;5.65;;;;;;;8.80;100.00;101817.63;5010072;28;20034;-45
2023/02/18 09:04:13;;;;;;;51.42;4.80;;;;;;;8.81;100.00;101818.47;5010067;28;20052;-45
2023/02/18 09:06:39;;;;;;;39.58;4.93;;;;;;;8.81;100.00;101824.69;5011996;28;20025;-44
2023/02/18 09:09:04;;;;;;;36.50;4.15;;;;;;;8.85;100.00;101818.03;5013722;28;20030;-44
2023/02/18 09:11:30;;;;;;;51.33;5.65;;;;;;;8.89;100.00;101832.84;5013111;28;20055;-45
2023/02/18 09:13:55;;;;;;;50.53;4.30;;;;;;;8.92;100.00;101835.22;5012926;28;20178;-45
2023/02/18 09:16:21;;;;;;;50.78;4.75;;;;;;;8.94;100.00;101827.03;5013705;28;20393;-46
2023/02/18 09:18:47;;;;;;;49.22;4.78;;;;;;;8.98;100.00;101826.59;5014255;28;20108;-44
2023/02/18 09:21:14;;;;;;;45.03;4.18;;;;;;;9.00;100.00;101830.00;5013629;28;20022;-46
2023/02/18 09:23:40;;;;;;;47.65;5.03;;;;;;;8.99;100.00;101828.28;5013793;28;20022;-45
2023/02/18 09:26:08;;;;;;;38.40;3.55;;;;;;;9.00;100.00;101827.31;5013488;28;20358;-45
2023/02/18 09:28:34;;;;;;;;;;;;;;;8.99;100.00;101828.28;5013848;28;20040;-45
2023/02/18 09:31:05;;;;;;;35.95;4.20;;;;;;;9.01;100.00;101836.22;5013289;28;19909;-44
2023/02/18 09:33:30;;;;;;;46.35;4.13;;;;;;;9.05;100.00;101839.44;5013156;28;20423;-44
2023/02/18 09:35:55;;;;;;;40.97;4.18;;;;;;;9.07;100.00;101832.09;5013502;28;20440;-44
2023/02/18 09:38:21;;;;;;;37.88;4.32;;;;;;;9.15;100.00;101835.72;5013539;28;20034;-45
2023/02/18 09:40:49;;;;;;;40.28;4.07;;;;;;;9.23;100.00;101840.34;5012565;28;20018;-44
2023/02/18 09:43:20;;;;;;;29.63;3.75;;;;;;;9.24;100.00;101847.41;5012520;28;20100;-45
2023/02/18 09:45:46;;;;;;;37.40;4.30;;;;;;;9.31;100.00;101851.19;5013168;28;20041;-44
2023/02/18 09:48:11;;;;;;;42.38;5.35;;;;;;;9.30;100.00;101840.59;5011606;28;20073;-44
2023/02/18 09:50:36;;;;;;;47.13;4.05;;;;;;;9.35;100.00;101851.75;5013161;28;20080;-46
2023/02/18 09:53:03;;;;;;;45.75;4.90;;;;;;;9.32;100.00;101844.84;5012974;28;20030;-45
2023/02/18 09:55:38;;;;;;;45.42;4.82;;;;;;;9.36;100.00;101840.84;5012570;28;20099;-45
2023/02/18 09:58:06;;;;;;;31.90;3.90;;;;;;;9.35;100.00;101847.22;5011317;28;20560;-45
2023/02/18 10:01:04;;;;;;;30.42;3.30;;;;;;;9.38;100.00;101843.38;5025076;28;20446;-45
2023/02/18 10:03:29;;;;;;;;;;;;;;;9.39;100.00;101839.69;5029715;28;20034;-44
2023/02/18 10:05:54;;;;;;;39.90;4.10;;;;;;;9.40;100.00;101842.25;5030642;28;19909;-45
2023/02/18 10:08:34;;;;;;;41.95;4.40;;;;;;;9.45;100.00;101839.94;5032041;28;20033;-43
2023/02/18 10:10:59;;;;;;;35.67;4.47;;;;;;;9.51;100.00;101861.84;5031072;28;20047;-45
2023/02/18 10:13:28;;;;;;;37.35;4.70;;;;;;;9.51;100.00;101853.78;5032436;28;20029;-45
2023/02/18 10:15:54;;;;;;;43.45;4.30;;;;;;;9.52;100.00;101848.25;5032229;28;20026;-45
2023/02/18 10:18:32;;;;;;;35.78;4.72;;;;;;;9.61;100.00;101860.78;5031118;28;20052;-44
2023/02/18 10:21:18;;;;;;;31.70;4.10;;;;;;;9.60;100.00;101863.63;5030833;28;20453;-45
2023/02/18 10:24:00;;;;;;;42.20;4.47;;;;;;;9.63;100.00;101871.38;5031880;28;20053;-47
2023/02/18 10:26:26;;;;;;;31.55;3.42;;;;;;;9.63;100.00;101879.44;5030742;28;20056;-45
2023/02/18 10:28:51;;;;;;;38.80;4.22;;;;;;;9.71;100.00;101876.00;5032008;28;20029;-46
2023/02/18 10:31:36;;;;;;;33.28;3.92;;;;;;;9.64;100.00;101875.78;5030859;28;20104;-45
2023/02/18 10:34:13;;;;;;;35.38;4.47;;;;;;;9.72;100.00;101878.56;5031463;28;20069;-48
2023/02/18 10:36:48;;;;;;;43.22;4.10;;;;;;;9.66;100.00;101889.88;5032092;28;20535;-44
2023/02/18 10:39:52;;;;;;;38.20;3.92;;;;;;;9.73;100.00;101880.22;5030870;28;20029;-44
2023/02/18 10:42:42;;;;;;;36.80;4.30;;;;;;;9.77;100.00;101884.31;5036249;28;20057;-45
2023/02/18 10:45:10;;;;;;;37.95;3.88;;;;;;;9.83;100.00;101859.50;5031791;28;20128;-44
2023/02/18 10:47:38;;;;;;;;;;;;;;;9.92;100.00;101886.47;5032057;28;20499;-44
2023/02/18 10:50:26;;;;;;;27.70;4.00;;;;;;;9.92;100.00;101873.03;5031540;28;20036;-45
2023/02/18 10:52:54;;;;;;;41.47;4.50;;;;;;;9.92;100.00;101889.16;5027190;28;20033;-44
2023/02/18 10:55:20;;;;;;;;;;;;;;;9.89;100.00;101877.72;5013379;28;20502;-44
2023/02/18 10:57:51;;;;;;;36.40;4.32;;;;;;;9.89;100.00;101871.50;5023474;28;19945;-48
2023/02/18 11:00:25;;;;;;;32.70;3.67;;;;;;;9.84;100.00;101874.63;5027217;28;20025;-47
2023/02/18 11:03:03;;;;;;;46.42;5.72;;;;;;;9.91;100.00;101887.50;5029116;28;20465;-46
2023/02/18 11:05:28;;;;;;;43.97;4.72;;;;;;;9.78;100.00;101877.94;5031468;28;20033;-44
2023/02/18 11:07:56;;;;;;;36.40;4.28;;;;;;;9.85;100.00;101894.31;5023569;28;20029;-44
2023/02/18 11:10:28;;;;;;;39.13;3.90;;;;;;;9.85;100.00;101886.25;5025182;28;20112;-44
2023/02/18 11:13:00;;;;;;;40.00;3.80;;;;;;;10.06;100.00;101881.44;5026969;28;20025;-45
2023/02/18 11:15:27;;;;;;;34.83;3.55;;;;;;;10.17;100.00;101872.28;5027370;28;20028;-43
2023/02/18 11:17:54;;;;;;;33.40;3.30;;;;;;;10.25;100.00;101869.66;5011395;28;20053;-47
2023/02/18 11:20:40;;;;;;;39.50;3.75;;;;;;;10.46;100.00;101898.97;5019536;28;20029;-45
2023/02/18 11:23:05;;;;;;;42.92;4.45;;;;;;;10.46;100.00;101876.59;5011269;28;20084;-44